Time;durP1;ratioP1;P1;durP2;ratioP2;P2;SDS_P1;SDS_P2;PMS_P1;PMS_P2;Temp;Humidity;BMP_temperature;BMP_pressure;BME280_temperature;BME280_humidity;BME280_pressure;Samples;Min_cycle;Max_cycle;Signal;HPM_P1;HPM_P2
2022/12/15 00:40:58;;;;;;;7.07;3.05;;;-1.30;99.90;;;;;;5108027;27;20092;-81
2022/12/15 00:43:31;;;;;;;5.80;2.92;;;-1.30;99.90;;;;;;5090895;27;20051;-81
2022/12/15 00:48:42;;;;;;;6.22;3.03;;;-1.30;99.90;;;;;;5107865;27;20096;-81
2022/12/15 00:51:08;;;;;;;7.70;2.95;;;-1.30;99.90;;;;;;5107917;27;20142;-81
2022/12/15 01:20:59;;;;;;;6.40;3.40;;;-1.20;99.90;;;;;;5111199;27;20130;-82
2022/12/15 01:23:25;;;;;;;7.53;2.80;;;-1.30;99.90;;;;;;5111709;27;20046;-80
2022/12/15 01:25:52;;;;;;;8.65;3.60;;;-0.70;99.90;;;;;;5094646;27;20130;-80
2022/12/15 01:28:22;;;;;;;6.85;3.05;;;-1.30;99.90;;;;;;5095078;27;20050;-83
2022/12/15 01:30:49;;;;;;;12.75;3.60;;;-1.30;99.90;;;;;;5111209;27;20135;-80
2022/12/15 01:33:16;;;;;;;9.00;3.28;;;-1.30;99.90;;;;;;5131150;27;20039;-81
2022/12/15 01:35:41;;;;;;;6.00;2.88;;;-1.30;99.90;;;;;;5093649;27;20039;-80
2022/12/15 01:38:08;;;;;;;10.27;3.75;;;0.00;99.90;;;;;;5059376;28;20479;-81
2022/12/15 01:40:49;;;;;;;8.93;3.47;;;-1.30;99.90;;;;;;5110247;28;20047;-80
2022/12/15 01:43:21;;;;;;;5.35;2.83;;;-1.30;99.90;;;;;;5092911;28;20489;-81
2022/12/15 01:46:05;;;;;;;9.10;3.45;;;-1.30;99.90;;;;;;5093123;28;20035;-81
2022/12/15 01:48:40;;;;;;;6.53;3.10;;;-1.40;99.90;;;;;;5109414;28;20467;-81
2022/12/15 01:51:24;;;;;;;9.57;3.03;;;-1.30;99.90;;;;;;5092182;28;20043;-81
2022/12/15 01:54:01;;;;;;;7.43;2.85;;;-1.30;99.90;;;;;;5108825;28;20043;-80
2022/12/15 01:56:27;;;;;;;8.48;2.72;;;-1.30;99.90;;;;;;5107395;28;20383;-80
2022/12/15 01:58:58;;;;;;;8.90;3.20;;;-1.30;99.90;;;;;;5091320;28;20043;-81
2022/12/15 02:01:23;;;;;;;8.02;3.10;;;-1.30;99.90;;;;;;5108064;28;20464;-80
2022/12/15 02:03:49;;;;;;;8.80;2.80;;;-1.30;99.90;;;;;;5107644;28;20083;-81
2022/12/15 02:06:20;;;;;;;5.28;3.03;;;-1.30;99.90;;;;;;5107557;28;20046;-82
2022/12/15 02:08:48;;;;;;;5.22;2.22;;;-1.30;99.90;;;;;;5090002;28;20563;-81
2022/12/15 02:11:37;;;;;;;6.25;2.40;;;-1.30;99.90;;;;;;5107631;28;20043;-80
2022/12/15 02:14:08;;;;;;;4.65;2.35;;;-1.30;99.90;;;;;;5109463;27;20156;-80
2022/12/15 02:16:55;;;;;;;7.78;3.45;;;-1.30;99.90;;;;;;5110945;27;20043;-80
2022/12/15 02:19:48;;;;;;;8.77;3.10;;;-1.30;99.90;;;;;;5094267;27;20123;-80
2022/12/15 02:22:36;;;;;;;11.50;3.22;;;-1.30;99.90;;;;;;5110479;27;20471;-80
2022/12/15 02:25:38;;;;;;;7.28;3.53;;;-1.30;99.90;;;;;;5110735;27;20039;-80
2022/12/15 02:28:10;;;;;;;8.07;3.75;;;-1.20;99.90;;;;;;5094082;27;20107;-80
2022/12/15 02:33:56;;;;;;;9.00;3.60;;;-1.30;99.90;;;;;;5110801;27;20062;-80
2022/12/15 02:36:47;;;;;;;16.15;4.53;;;-1.20;99.90;;;;;;5111060;27;20064;-81
2022/12/15 02:39:14;;;;;;;11.13;3.83;;;-1.30;99.90;;;;;;5092555;27;20039;-80
2022/12/15 02:41:43;;;;;;;8.02;3.13;;;-1.20;99.90;;;;;;5110591;27;20833;-80
2022/12/15 02:44:29;;;;;;;5.80;3.42;;;-1.10;99.90;;;;;;5109660;27;20075;-81
2022/12/15 02:47:13;;;;;;;9.90;3.15;;;-1.00;99.90;;;;;;5110160;27;20057;-81
2022/12/15 02:49:50;;;;;;;5.03;3.03;;;-0.90;99.90;;;;;;5110688;27;20039;-80
2022/12/15 02:52:33;;;;;;;5.78;2.65;;;-0.90;99.90;;;;;;5092574;27;20054;-80
2022/12/15 02:55:19;;;;;;;8.15;2.42;;;-0.90;99.90;;;;;;5093561;27;20047;-82
2022/12/15 02:58:13;;;;;;;4.57;2.42;;;-0.90;99.90;;;;;;5093693;27;20406;-81
2022/12/15 03:00:49;;;;;;;8.18;3.08;;;-1.00;99.90;;;;;;5109416;27;20047;-79
2022/12/15 03:03:19;;;;;;;11.73;3.15;;;-1.10;99.90;;;;;;5093317;27;20502;-81
2022/12/15 03:05:48;;;;;;;6.15;3.17;;;-1.10;99.90;;;;;;5127436;27;20054;-81
2022/12/15 03:08:14;;;;;;;10.15;3.72;;;-1.20;99.90;;;;;;5110311;27;20502;-81
2022/12/15 03:10:39;;;;;;;7.88;3.75;;;-0.10;99.90;;;;;;5110709;27;20088;-80
2022/12/15 03:13:05;;;;;;;14.57;3.33;;;-1.30;99.90;;;;;;5127992;27;20382;-81
2022/12/15 03:15:31;;;;;;;7.63;3.67;;;-1.40;99.90;;;;;;5110101;27;20055;-81
2022/12/15 03:17:56;;;;;;;8.32;4.03;;;-1.40;99.90;;;;;;5091899;27;20054;-80
2022/12/15 03:20:22;;;;;;;7.85;3.92;;;-1.40;99.90;;;;;;5109964;27;20043;-80
2022/12/15 03:22:48;;;;;;;7.90;4.15;;;-1.60;99.90;;;;;;5108784;27;20046;-81
2022/12/15 03:25:14;;;;;;;7.00;3.42;;;-1.50;99.90;;;;;;5108554;27;20047;-80
2022/12/15 03:27:40;;;;;;;8.85;3.58;;;-1.60;99.90;;;;;;5109087;27;20099;-80
2022/12/15 03:30:06;;;;;;;9.68;3.45;;;-1.60;99.90;;;;;;5109657;27;20128;-80
2022/12/15 03:32:32;;;;;;;7.93;3.42;;;-1.60;99.90;;;;;;5093270;27;20035;-81
2022/12/15 03:34:57;;;;;;;7.97;2.80;;;-1.60;99.90;;;;;;5091470;27;20574;-80
2022/12/15 03:37:23;;;;;;;8.35;2.70;;;-1.60;99.90;;;;;;5109406;27;20039;-80
2022/12/15 03:39:49;;;;;;;5.97;2.95;;;-1.50;99.90;;;;;;5091560;27;20413;-80
2022/12/15 03:42:46;;;;;;;11.05;2.88;;;-1.40;99.90;;;;;;5109413;27;20043;-80
2022/12/15 03:45:00;;;;;;;6.40;2.20;;;-1.30;99.90;;;;;;5127442;27;20405;-80
2022/12/15 03:47:26;;;;;;;6.25;2.38;;;-0.20;99.90;;;;;;5091636;27;20039;-81
2022/12/15 03:49:51;;;;;;;7.35;2.42;;;-0.30;99.90;;;;;;5109254;27;20035;-81
2022/12/15 03:52:17;;;;;;;8.00;2.83;;;-1.30;99.90;;;;;;5107865;27;20118;-81
2022/12/15 03:54:43;;;;;;;10.60;2.90;;;-0.50;99.90;;;;;;5127861;27;20075;-81
2022/12/15 03:57:08;;;;;;;9.32;2.40;;;-1.30;99.90;;;;;;5091058;27;20043;-81
2022/12/15 03:59:34;;;;;;;8.40;2.40;;;-1.30;99.90;;;;;;5109128;27;20047;-81
2022/12/15 04:01:59;;;;;;;10.85;2.85;;;-1.30;99.90;;;;;;5108492;27;20037;-81
2022/12/15 04:04:25;;;;;;;4.57;2.60;;;-1.30;99.90;;;;;;5074621;27;20126;-81
2022/12/15 04:06:51;;;;;;;6.38;2.53;;;-1.30;99.90;;;;;;5091756;27;20130;-81
2022/12/15 04:09:18;;;;;;;7.70;2.47;;;-1.40;99.90;;;;;;5090853;27;20047;-81
2022/12/15 04:11:43;;;;;;;5.47;2.72;;;-1.40;99.90;;;;;;5092511;27;20043;-81
2022/12/15 04:14:09;;;;;;;9.05;2.85;;;-1.40;99.90;;;;;;5090651;27;20417;-81
2022/12/15 04:16:35;;;;;;;4.22;1.92;;;-1.40;99.90;;;;;;5127624;27;20127;-81
2022/12/15 04:21:44;;;;;;;10.63;1.85;;;-1.50;99.90;;;;;;5108015;27;20062;-82
2022/12/15 05:32:39;;;;;;;8.32;1.95;;;-1.00;99.90;;;;;;5093206;27;20099;-80
2022/12/15 05:35:05;;;;;;;7.05;2.33;;;-0.90;99.90;;;;;;5089256;28;20115;-83
2022/12/15 05:37:30;;;;;;;9.05;2.05;;;-0.90;99.90;;;;;;5091118;27;20050;-81
2022/12/15 05:39:56;;;;;;;6.05;2.67;;;-0.90;99.90;;;;;;5106774;28;20062;-81
2022/12/15 05:42:22;;;;;;;5.18;3.00;;;-0.80;99.90;;;;;;5091355;28;20057;-80
2022/12/15 05:44:47;;;;;;;9.93;3.13;;;-0.80;99.90;;;;;;5125081;28;20043;-81
2022/12/15 05:47:13;;;;;;;6.40;2.67;;;-0.80;99.90;;;;;;5110527;28;20051;-82
2022/12/15 05:49:38;;;;;;;8.10;3.80;;;-0.90;99.90;;;;;;5097088;27;20087;-82
2022/12/15 05:52:05;;;;;;;9.95;2.85;;;0.50;99.90;;;;;;5095142;27;20065;-81
2022/12/15 05:54:31;;;;;;;11.77;2.60;;;-0.80;99.90;;;;;;5094909;27;20043;-81
2022/12/15 05:56:56;;;;;;;8.23;3.38;;;-0.90;99.90;;;;;;5079910;27;20118;-83
2022/12/15 05:59:22;;;;;;;6.50;2.88;;;-0.90;99.90;;;;;;5135975;27;20039;-82
2022/12/15 06:01:47;;;;;;;6.15;3.53;;;-0.90;99.90;;;;;;5132663;27;20322;-82
2022/12/15 06:04:13;;;;;;;7.47;3.88;;;-0.90;99.90;;;;;;5112282;27;20544;-82
2022/12/15 06:06:39;;;;;;;8.48;3.30;;;-1.00;99.90;;;;;;5111822;27;20043;-83
2022/12/15 06:09:05;;;;;;;8.60;3.45;;;-1.00;99.90;;;;;;5112488;27;20398;-84
2022/12/15 06:11:31;;;;;;;12.98;5.05;;;-1.00;99.90;;;;;;5095468;27;20050;-83
2022/12/15 06:13:57;;;;;;;11.70;3.38;;;-1.10;99.90;;;;;;5078008;27;20058;-84
2022/12/15 06:16:24;;;;;;;5.18;3.17;;;-0.60;99.90;;;;;;5078552;27;20047;-83
2022/12/15 06:18:54;;;;;;;11.45;3.67;;;-1.10;99.90;;;;;;5110679;27;20047;-82
2022/12/15 06:21:23;;;;;;;9.93;3.80;;;0.30;99.90;;;;;;5111802;27;20047;-84
2022/12/15 06:23:50;;;;;;;7.60;3.53;;;-1.00;99.90;;;;;;5111307;27;20516;-83
2022/12/15 06:26:27;;;;;;;8.57;3.45;;;-0.90;99.90;;;;;;5093437;27;20107;-83
2022/12/15 06:28:57;;;;;;;5.65;3.00;;;0.30;99.90;;;;;;5112298;27;20394;-82
2022/12/15 06:31:24;;;;;;;9.65;2.90;;;-0.90;99.90;;;;;;5093080;27;20385;-83
2022/12/15 06:33:51;;;;;;;5.88;3.10;;;-0.80;99.90;;;;;;5111971;27;20070;-82
2022/12/15 06:36:18;;;;;;;9.27;3.28;;;-0.80;99.90;;;;;;5093506;27;20050;-82
2022/12/15 06:38:44;;;;;;;10.43;3.50;;;-0.80;99.90;;;;;;5094318;27;20454;-83
2022/12/15 06:41:15;;;;;;;8.32;2.83;;;-0.80;99.90;;;;;;5111031;27;20078;-82
2022/12/15 06:43:41;;;;;;;6.75;3.22;;;-0.80;99.90;;;;;;5109656;27;20124;-83
2022/12/15 06:46:07;;;;;;;7.90;3.60;;;-0.80;99.90;;;;;;5110997;27;20039;-84
2022/12/15 06:48:33;;;;;;;5.68;2.88;;;-0.70;99.90;;;;;;5092316;27;20118;-84
2022/12/15 06:51:04;;;;;;;11.20;4.13;;;-0.80;99.90;;;;;;5111091;27;20083;-84
2022/12/15 06:53:30;;;;;;;5.05;3.15;;;-0.80;99.90;;;;;;5110322;27;20105;-83
2022/12/15 06:56:04;;;;;;;8.95;4.40;;;-0.70;99.90;;;;;;5129345;27;20114;-83
2022/12/15 06:58:29;;;;;;;8.93;4.20;;;-0.70;99.90;;;;;;5110243;27;20039;-85
2022/12/15 07:00:55;;;;;;;7.57;4.55;;;-0.70;99.90;;;;;;5110137;27;20087;-84
2022/12/15 07:03:21;;;;;;;14.45;5.18;;;-0.60;99.90;;;;;;5094077;27;20403;-84
2022/12/15 07:05:47;;;;;;;10.15;4.20;;;-0.70;99.90;;;;;;5092391;27;20469;-85
2022/12/15 07:08:15;;;;;;;12.57;3.88;;;-0.70;99.90;;;;;;5094528;27;20047;-84
2022/12/15 07:10:42;;;;;;;11.75;4.18;;;-0.60;99.90;;;;;;5110123;27;20035;-85
2022/12/15 07:13:12;;;;;;;8.90;3.47;;;-0.70;99.90;;;;;;5111021;27;20047;-83
2022/12/15 07:15:39;;;;;;;7.93;3.75;;;-0.70;99.90;;;;;;5110867;27;20051;-84
2022/12/15 07:18:05;;;;;;;11.90;3.45;;;-0.70;99.90;;;;;;5092899;27;20038;-82
2022/12/15 07:20:31;;;;;;;14.48;4.10;;;-0.60;99.90;;;;;;5094249;27;20073;-84
2022/12/15 07:22:56;;;;;;;8.90;3.75;;;-0.60;99.90;;;;;;5093497;27;20042;-84
2022/12/15 07:25:22;;;;;;;11.80;4.50;;;-0.50;99.90;;;;;;5095195;27;20429;-86
2022/12/15 07:27:48;;;;;;;6.65;3.53;;;-0.50;99.90;;;;;;5110111;27;20502;-85
2022/12/15 07:30:16;;;;;;;8.20;3.55;;;-0.40;99.90;;;;;;5094372;27;20133;-82
2022/12/15 07:32:43;;;;;;;12.80;4.68;;;-0.40;99.90;;;;;;5110740;27;20039;-83
2022/12/15 07:35:09;;;;;;;15.82;4.22;;;-0.50;99.90;;;;;;5092739;27;20047;-82
2022/12/15 07:37:35;;;;;;;9.43;3.97;;;-0.40;99.90;;;;;;5110801;27;20124;-82
2022/12/15 07:40:02;;;;;;;8.48;4.40;;;-0.50;99.90;;;;;;5091759;27;20028;-84
2022/12/15 07:42:29;;;;;;;10.45;4.40;;;-0.40;99.90;;;;;;5110132;27;20471;-84
2022/12/15 07:44:54;;;;;;;9.98;4.25;;;-0.40;99.90;;;;;;5109507;27;20479;-82
2022/12/15 07:47:20;;;;;;;12.55;4.45;;;-0.40;99.90;;;;;;5109758;27;20134;-83
2022/12/15 07:49:46;;;;;;;6.30;3.80;;;-0.40;99.90;;;;;;5109585;27;20050;-83
2022/12/15 07:52:12;;;;;;;8.05;4.18;;;-0.40;99.90;;;;;;5109322;27;20047;-83
2022/12/15 07:54:39;;;;;;;8.15;4.15;;;-0.30;99.90;;;;;;5110253;27;20066;-83
2022/12/15 07:57:06;;;;;;;5.93;3.53;;;-0.30;99.90;;;;;;5108746;27;20413;-83
2022/12/15 07:59:33;;;;;;;8.52;3.75;;;-0.20;99.90;;;;;;5093231;27;20051;-83
2022/12/15 08:02:00;;;;;;;8.65;3.58;;;-0.20;99.90;;;;;;5091424;27;20071;-84
2022/12/15 08:04:26;;;;;;;11.80;4.28;;;-0.20;99.90;;;;;;5109458;27;20039;-83
2022/12/15 08:06:53;;;;;;;11.55;4.15;;;-0.10;99.90;;;;;;5108800;27;20047;-83
2022/12/15 08:09:19;;;;;;;6.82;3.35;;;-0.10;99.90;;;;;;5092060;27;20079;-83
2022/12/15 08:11:44;;;;;;;7.68;3.40;;;-0.10;99.90;;;;;;5108900;27;20161;-84
2022/12/15 08:14:10;;;;;;;15.77;4.03;;;-0.10;99.90;;;;;;5108008;27;20051;-83
2022/12/15 08:16:36;;;;;;;8.68;3.55;;;-0.10;99.90;;;;;;5076283;27;20051;-83
2022/12/15 08:19:04;;;;;;;11.55;3.60;;;-0.10;99.90;;;;;;5107800;27;20394;-83
2022/12/15 08:21:30;;;;;;;7.65;3.83;;;-0.10;99.90;;;;;;5109371;27;20122;-84
2022/12/15 08:23:56;;;;;;;8.20;3.63;;;0.00;99.90;;;;;;5108943;27;20126;-83
2022/12/15 08:26:22;;;;;;;13.95;4.18;;;-0.10;99.90;;;;;;5091903;27;20066;-83
2022/12/15 08:28:48;;;;;;;7.93;3.45;;;0.80;99.90;;;;;;5108836;27;20047;-83
2022/12/15 08:31:16;;;;;;;8.95;4.65;;;0.00;99.90;;;;;;5107945;27;20468;-82
2022/12/15 08:33:42;;;;;;;10.98;3.90;;;0.00;99.90;;;;;;5109595;27;20099;-83
2022/12/15 08:36:10;;;;;;;7.72;3.55;;;0.00;99.90;;;;;;5107950;27;20386;-83
2022/12/15 08:38:37;;;;;;;6.90;3.47;;;0.10;99.90;;;;;;5109483;27;20533;-83
2022/12/15 08:41:12;;;;;;;9.30;3.72;;;0.00;99.90;;;;;;5108347;27;20425;-83
2022/12/15 08:43:38;;;;;;;9.77;3.88;;;0.10;99.90;;;;;;5108944;27;20039;-83
2022/12/15 08:46:05;;;;;;;7.75;3.92;;;0.10;99.90;;;;;;5092039;27;20589;-83
2022/12/15 08:48:30;;;;;;;10.00;3.22;;;0.10;99.90;;;;;;5107973;27;20386;-83
2022/12/15 08:50:58;;;;;;;10.13;3.75;;;0.10;99.90;;;;;;5092626;27;20035;-83
2022/12/15 08:53:24;;;;;;;8.27;3.47;;;0.10;99.90;;;;;;5090230;27;20043;-83
2022/12/15 08:55:50;;;;;;;9.25;4.22;;;0.20;99.90;;;;;;5075366;27;20045;-83
2022/12/15 08:58:16;;;;;;;7.20;3.50;;;1.30;99.90;;;;;;5090532;27;20127;-83
2022/12/15 09:00:42;;;;;;;11.98;4.07;;;0.30;99.90;;;;;;5108418;27;20664;-84
2022/12/15 09:03:08;;;;;;;14.50;4.60;;;0.30;99.90;;;;;;5074923;27;20043;-84
2022/12/15 09:05:34;;;;;;;9.05;4.22;;;0.30;99.90;;;;;;5106983;27;20565;-83
2022/12/15 09:08:00;;;;;;;12.70;3.80;;;0.40;99.90;;;;;;5075031;27;20050;-84
2022/12/15 09:10:26;;;;;;;11.30;3.70;;;0.40;99.90;;;;;;5106945;27;20122;-85
2022/12/15 09:12:52;;;;;;;8.15;4.43;;;0.40;99.90;;;;;;5109045;27;20529;-83
2022/12/15 09:15:17;;;;;;;6.72;3.40;;;0.50;99.90;;;;;;5089710;27;20051;-83
2022/12/15 09:17:44;;;;;;;11.63;3.70;;;0.50;99.90;;;;;;5107978;27;20043;-83
2022/12/15 09:20:11;;;;;;;6.63;3.58;;;0.50;99.90;;;;;;5090673;28;20047;-84
2022/12/15 09:22:37;;;;;;;5.85;3.83;;;1.20;99.90;;;;;;5106920;27;20576;-83
2022/12/15 09:25:03;;;;;;;9.05;3.63;;;0.60;99.90;;;;;;5108189;27;20135;-83
2022/12/15 09:27:29;;;;;;;9.05;4.38;;;0.60;99.90;;;;;;5106373;27;20053;-84
2022/12/15 09:29:56;;;;;;;8.93;4.25;;;0.70;99.90;;;;;;5108367;28;20465;-83
2022/12/15 09:32:21;;;;;;;9.05;3.78;;;0.80;99.90;;;;;;5106561;27;20042;-84
2022/12/15 09:34:49;;;;;;;7.88;3.70;;;1.50;99.90;;;;;;5108325;28;20126;-83
2022/12/15 09:37:15;;;;;;;8.75;4.65;;;0.90;99.90;;;;;;5107039;27;20052;-84
2022/12/15 09:39:40;;;;;;;8.27;4.43;;;1.00;99.90;;;;;;5089942;27;20402;-84
2022/12/15 09:42:25;;;;;;;12.77;4.40;;;2.30;99.90;;;;;;5107931;28;20079;-84
2022/12/15 09:45:03;;;;;;;10.98;4.07;;;1.10;99.90;;;;;;5106355;28;20051;-84
2022/12/15 09:47:44;;;;;;;11.35;4.63;;;1.20;99.90;;;;;;5108010;28;20054;-84
2022/12/15 09:50:12;;;;;;;7.35;3.35;;;1.20;99.90;;;;;;5107402;28;20043;-84
2022/12/15 09:52:52;;;;;;;9.15;3.78;;;1.30;99.90;;;;;;5106765;28;20074;-85
2022/12/15 09:55:23;;;;;;;8.68;4.28;;;1.70;99.90;;;;;;5108395;28;20078;-84
2022/12/15 09:58:12;;;;;;;9.23;4.07;;;1.40;99.90;;;;;;5089005;28;20053;-84
2022/12/15 10:00:54;;;;;;;12.52;4.47;;;1.50;99.90;;;;;;5107486;28;20035;-84
2022/12/15 10:03:53;;;;;;;10.32;3.78;;;1.60;99.90;;;;;;5107288;28;20490;-85
2022/12/15 10:06:43;;;;;;;7.20;3.70;;;1.60;99.90;;;;;;5105720;28;20054;-84
2022/12/15 10:09:21;;;;;;;13.45;4.10;;;1.60;99.90;;;;;;5108043;28;20394;-85
2022/12/15 10:11:58;;;;;;;7.07;3.25;;;1.70;99.90;;;;;;5089761;28;20051;-84
2022/12/15 10:14:38;;;;;;;7.90;3.85;;;1.70;99.90;;;;;;5106090;28;20062;-85
2022/12/15 10:17:11;;;;;;;8.40;3.72;;;1.70;99.90;;;;;;5108610;28;20122;-85
2022/12/15 10:19:42;;;;;;;15.30;4.70;;;1.80;99.90;;;;;;5105957;28;20043;-85
2022/12/15 10:22:13;;;;;;;9.13;3.95;;;1.80;99.90;;;;;;5090777;28;20039;-85
2022/12/15 10:24:39;;;;;;;10.65;5.18;;;3.00;99.90;;;;;;5107102;28;20390;-85
2022/12/15 10:27:10;;;;;;;7.88;3.42;;;2.00;99.90;;;;;;5106358;28;20039;-85
2022/12/15 10:29:44;;;;;;;7.38;4.10;;;2.00;99.90;;;;;;5107673;28;20051;-85
2022/12/15 10:32:46;;;;;;;17.17;4.78;;;2.10;99.90;;;;;;5088927;28;20054;-85
2022/12/15 10:35:30;;;;;;;9.90;3.50;;;2.20;99.90;;;;;;5110410;27;20047;-85
2022/12/15 10:38:02;;;;;;;7.65;3.92;;;2.20;99.90;;;;;;5111634;27;20128;-84
2022/12/15 10:40:51;;;;;;;9.60;3.10;;;2.30;99.90;;;;;;5110510;27;20398;-89
2022/12/15 10:43:27;;;;;;;9.43;3.72;;;2.30;99.90;;;;;;5112928;27;20039;-87
2022/12/15 10:46:06;;;;;;;11.55;3.95;;;2.40;99.90;;;;;;5093596;27;20073;-83
2022/12/15 10:48:31;;;;;;;5.68;3.35;;;2.50;99.90;;;;;;5110770;27;20055;-85
2022/12/15 10:51:12;;;;;;;13.25;4.60;;;2.50;99.90;;;;;;5112120;27;20042;-84
2022/12/15 10:53:45;;;;;;;10.77;3.63;;;2.60;99.90;;;;;;5110855;27;20432;-84
2022/12/15 10:56:27;;;;;;;11.45;5.60;;;2.70;99.90;;;;;;5113411;27;20496;-84
2022/12/15 10:58:58;;;;;;;13.38;4.10;;;2.70;99.90;;;;;;5110387;27;20045;-85
2022/12/15 11:01:33;;;;;;;8.93;3.67;;;2.80;99.90;;;;;;5093650;27;20061;-85
2022/12/15 11:03:59;;;;;;;11.90;4.07;;;3.00;99.90;;;;;;5094127;27;20478;-85
2022/12/15 11:06:28;;;;;;;10.40;3.35;;;2.90;99.90;;;;;;5109387;27;20082;-85
2022/12/15 11:09:05;;;;;;;13.15;3.72;;;2.90;99.90;;;;;;5111729;27;20076;-84
2022/12/15 11:14:27;;;;;;;9.60;3.85;;;3.00;99.90;;;;;;5111252;27;20039;-84
2022/12/15 11:16:54;;;;;;;8.88;3.50;;;3.10;99.90;;;;;;5095078;27;20083;-84
2022/12/15 11:19:36;;;;;;;8.40;3.58;;;3.10;99.90;;;;;;5110295;27;20039;-84
2022/12/15 11:22:11;;;;;;;15.27;3.25;;;3.20;99.90;;;;;;5111942;27;20586;-86
2022/12/15 11:24:48;;;;;;;6.53;3.20;;;3.20;99.90;;;;;;5094419;27;20043;-84
2022/12/15 11:27:30;;;;;;;10.55;3.50;;;3.20;99.90;;;;;;5110776;27;20034;-85
2022/12/15 11:30:16;;;;;;;12.73;4.00;;;3.30;99.90;;;;;;5112508;27;20039;-85
2022/12/15 11:32:49;;;;;;;14.13;3.42;;;3.30;99.90;;;;;;5112197;27;20039;-86
2022/12/15 11:35:21;;;;;;;9.27;3.83;;;3.40;99.90;;;;;;5096963;27;20043;-85
2022/12/15 11:38:16;;;;;;;13.38;3.95;;;3.40;99.90;;;;;;5110377;27;20509;-85
2022/12/15 11:40:42;;;;;;;8.38;4.35;;;3.50;99.90;;;;;;5092284;27;20082;-84
2022/12/15 11:43:26;;;;;;;10.02;3.58;;;3.50;99.90;;;;;;5076897;27;20047;-85
2022/12/15 11:46:08;;;;;;;10.48;3.42;;;3.60;99.90;;;;;;5090485;27;20043;-85
2022/12/15 11:48:55;;;;;;;4.80;2.53;;;3.60;99.90;;;;;;5109748;27;20055;-84
2022/12/15 11:51:59;;;;;;;10.18;3.05;;;3.60;99.90;;;;;;5093680;27;20035;-85
2022/12/15 11:54:48;;;;;;;11.75;3.15;;;3.60;99.90;;;;;;5108611;27;20054;-84
2022/12/15 11:57:49;;;;;;;14.98;3.25;;;3.60;99.90;;;;;;5092634;27;20141;-85
2022/12/15 12:00:20;;;;;;;14.40;3.45;;;3.60;99.90;;;;;;5088384;27;20137;-84
2022/12/15 12:02:45;;;;;;;8.90;3.13;;;3.70;99.90;;;;;;5092133;27;20464;-85
2022/12/15 12:05:21;;;;;;;14.00;3.50;;;3.70;99.90;;;;;;5109792;27;20533;-84
2022/12/15 12:07:59;;;;;;;11.63;3.45;;;3.70;99.90;;;;;;5127372;27;20190;-84
2022/12/15 12:10:27;;;;;;;6.13;2.58;;;3.80;99.90;;;;;;5108743;27;20200;-84
2022/12/15 12:13:08;;;;;;;10.05;2.60;;;3.80;99.90;;;;;;5109799;27;20043;-84
2022/12/15 12:15:59;;;;;;;7.40;3.00;;;3.80;99.90;;;;;;5107529;27;20054;-84
2022/12/15 12:18:31;;;;;;;11.90;3.03;;;3.80;99.90;;;;;;5108843;27;20573;-84
2022/12/15 12:21:05;;;;;;;13.20;2.97;;;3.90;99.90;;;;;;5108359;27;20078;-83
2022/12/15 12:23:40;;;;;;;8.07;3.42;;;3.90;99.90;;;;;;5091297;27;20135;-84
2022/12/15 12:26:16;;;;;;;7.10;3.08;;;3.90;99.90;;;;;;5109705;27;20092;-84
2022/12/15 12:28:58;;;;;;;7.07;3.38;;;3.90;99.90;;;;;;5108046;27;20047;-85
2022/12/15 12:31:52;;;;;;;6.65;3.13;;;3.90;99.90;;;;;;5108795;27;20071;-84
2022/12/15 12:34:31;;;;;;;6.97;3.03;;;3.90;99.90;;;;;;5070062;27;20414;-84
2022/12/15 12:37:06;;;;;;;7.93;2.95;;;3.90;99.90;;;;;;5107267;27;20524;-84
2022/12/15 12:39:32;;;;;;;7.60;3.00;;;3.80;99.90;;;;;;5109322;27;20059;-84
2022/12/15 12:42:27;;;;;;;12.73;3.17;;;4.00;99.90;;;;;;5107392;27;20046;-83
2022/12/15 12:44:53;;;;;;;5.57;3.22;;;3.90;99.90;;;;;;5090858;27;20505;-83
2022/12/15 12:47:24;;;;;;;9.95;2.95;;;3.90;99.90;;;;;;5075049;27;20075;-83
2022/12/15 12:50:12;;;;;;;7.75;3.35;;;3.90;99.90;;;;;;5106867;27;20051;-84
2022/12/15 12:52:45;;;;;;;10.85;3.13;;;3.90;99.90;;;;;;5108605;27;20051;-83
2022/12/15 12:55:11;;;;;;;;;;;4.00;99.90;;;;;;5091161;27;20054;-83
2022/12/15 12:57:41;;;;;;;7.55;3.05;;;4.00;99.90;;;;;;5107473;27;19919;-83
2022/12/15 13:00:06;;;;;;;11.13;2.78;;;4.00;99.90;;;;;;5092162;27;20050;-83
2022/12/15 13:02:36;;;;;;;7.18;2.67;;;4.00;99.90;;;;;;5107665;27;20038;-83
2022/12/15 13:05:21;;;;;;;8.45;3.53;;;4.00;99.90;;;;;;5092074;27;20126;-83
2022/12/15 13:08:13;;;;;;;9.82;3.20;;;4.10;99.90;;;;;;5107023;27;20497;-83
2022/12/15 13:10:44;;;;;;;5.38;2.58;;;4.10;99.90;;;;;;5090505;27;20126;-83
2022/12/15 13:13:28;;;;;;;13.05;4.45;;;5.10;99.90;;;;;;5108799;27;20047;-83
2022/12/15 13:16:19;;;;;;;10.25;3.95;;;4.10;99.90;;;;;;5089479;27;20469;-83
2022/12/15 13:19:03;;;;;;;12.48;3.65;;;4.10;99.90;;;;;;5126610;27;20062;-83
2022/12/15 13:21:43;;;;;;;14.85;3.15;;;4.10;99.90;;;;;;5126580;27;20075;-83
2022/12/15 13:24:36;;;;;;;6.25;2.53;;;4.10;99.90;;;;;;5125087;27;20042;-83
2022/12/15 13:27:08;;;;;;;8.55;3.33;;;4.10;99.90;;;;;;5090724;27;20047;-83
2022/12/15 13:29:53;;;;;;;9.45;3.08;;;4.50;99.90;;;;;;5107504;27;20383;-83
2022/12/15 13:32:46;;;;;;;10.35;3.53;;;4.00;99.90;;;;;;5106922;27;20534;-81
2022/12/15 13:35:11;;;;;;;7.55;2.72;;;4.30;99.90;;;;;;5104228;27;20059;-82
2022/12/15 13:37:44;;;;;;;17.13;4.88;;;3.90;99.90;;;;;;5106625;28;20118;-82
2022/12/15 13:40:22;;;;;;;7.45;2.28;;;3.80;99.90;;;;;;5107365;27;20043;-80
2022/12/15 13:43:16;;;;;;;15.25;3.38;;;3.90;99.90;;;;;;5107848;28;20429;-82
2022/12/15 13:45:57;;;;;;;11.43;3.03;;;3.60;99.90;;;;;;5088965;28;20047;-81
2022/12/15 13:48:38;;;;;;;9.40;3.53;;;4.20;99.90;;;;;;5108587;28;20489;-81
2022/12/15 13:51:40;;;;;;;9.63;2.97;;;3.50;99.90;;;;;;5107040;28;20047;-82
2022/12/15 13:54:23;;;;;;;8.68;2.90;;;3.50;99.90;;;;;;5089665;28;20043;-80
2022/12/15 13:57:09;;;;;;;8.13;2.80;;;3.50;99.90;;;;;;5091695;28;20039;-81
2022/12/15 13:59:47;;;;;;;10.23;2.63;;;4.50;99.90;;;;;;5090059;28;20059;-81
2022/12/15 14:02:21;;;;;;;8.23;2.38;;;3.40;99.90;;;;;;5106595;28;20100;-82
2022/12/15 14:05:06;;;;;;;8.43;2.95;;;3.40;99.90;;;;;;5107673;28;20126;-82
2022/12/15 14:07:33;;;;;;;8.43;2.35;;;3.50;99.90;;;;;;5089595;27;20383;-83
2022/12/15 14:09:59;;;;;;;13.65;3.05;;;3.50;99.90;;;;;;5111264;27;20046;-83
2022/12/15 14:12:25;;;;;;;10.98;2.97;;;3.50;99.90;;;;;;5076859;27;20039;-83
2022/12/15 14:14:51;;;;;;;8.15;2.55;;;3.60;99.90;;;;;;5094115;27;20120;-82
2022/12/15 14:17:19;;;;;;;9.25;3.17;;;3.60;99.90;;;;;;5095219;27;20055;-82
2022/12/15 14:19:49;;;;;;;13.93;3.50;;;3.50;99.90;;;;;;5094122;27;20592;-82
2022/12/15 14:22:23;;;;;;;6.75;2.58;;;3.50;99.90;;;;;;5095080;27;20047;-82
2022/12/15 14:24:50;;;;;;;10.60;3.22;;;3.90;99.90;;;;;;5110057;27;20116;-81
2022/12/15 14:27:25;;;;;;;8.95;3.55;;;3.60;99.90;;;;;;5111678;27;20039;-82
2022/12/15 14:30:12;;;;;;;11.88;4.07;;;3.50;99.90;;;;;;5110808;27;20506;-82
2022/12/15 14:32:40;;;;;;;7.13;3.00;;;3.50;99.90;;;;;;5077531;27;20055;-83
2022/12/15 14:35:19;;;;;;;10.40;3.10;;;3.50;99.90;;;;;;5111976;27;20405;-81
2022/12/15 14:37:45;;;;;;;10.38;3.70;;;3.50;99.90;;;;;;5109866;27;20051;-83
2022/12/15 14:40:16;;;;;;;10.57;3.13;;;3.50;99.90;;;;;;5111513;27;20031;-83
2022/12/15 14:42:43;;;;;;;11.10;3.30;;;3.50;99.90;;;;;;5076856;27;20504;-83
2022/12/15 14:45:24;;;;;;;13.55;3.70;;;3.50;99.90;;;;;;5093917;27;20042;-82
2022/12/15 14:47:58;;;;;;;14.43;3.78;;;3.50;99.90;;;;;;5111871;27;20589;-82
2022/12/15 14:50:25;;;;;;;11.73;3.42;;;3.50;99.90;;;;;;5109767;27;20100;-82
2022/12/15 14:52:55;;;;;;;8.57;3.63;;;3.40;99.90;;;;;;5094480;27;20042;-82
2022/12/15 14:55:27;;;;;;;12.82;3.75;;;4.20;99.90;;;;;;5110406;27;20079;-82
2022/12/15 14:57:54;;;;;;;10.13;2.58;;;3.40;99.90;;;;;;5094003;27;20042;-82
2022/12/15 15:00:30;;;;;;;8.82;3.97;;;3.30;99.90;;;;;;5111005;27;20069;-82
2022/12/15 15:03:20;;;;;;;10.27;3.42;;;3.30;99.90;;;;;;5092997;27;20478;-82
2022/12/15 15:06:02;;;;;;;10.70;3.88;;;3.30;99.90;;;;;;5094466;27;20082;-82
2022/12/15 15:08:35;;;;;;;8.27;4.13;;;3.30;99.90;;;;;;5109618;27;20039;-82
2022/12/15 15:11:16;;;;;;;14.23;4.63;;;3.30;99.90;;;;;;5109856;27;20051;-83
2022/12/15 15:13:42;;;;;;;9.55;4.15;;;3.30;99.90;;;;;;5110877;27;20092;-81
2022/12/15 15:16:15;;;;;;;12.55;3.97;;;3.30;99.90;;;;;;5075020;27;20051;-81
2022/12/15 15:18:42;;;;;;;9.40;4.00;;;3.30;99.90;;;;;;5094420;27;20046;-81
2022/12/15 15:21:17;;;;;;;17.02;4.38;;;4.30;99.90;;;;;;5109209;27;20046;-81
2022/12/15 15:24:00;;;;;;;9.52;3.65;;;3.20;99.90;;;;;;5109785;27;20050;-81
2022/12/15 15:26:27;;;;;;;12.52;4.65;;;3.10;99.90;;;;;;5093427;27;20037;-81
2022/12/15 15:28:53;;;;;;;13.73;4.57;;;3.10;99.90;;;;;;5109194;27;20050;-81
2022/12/15 15:31:36;;;;;;;12.35;3.65;;;3.00;99.90;;;;;;5110954;27;20047;-81
2022/12/15 15:34:05;;;;;;;10.38;3.05;;;3.70;99.90;;;;;;5091875;27;20055;-81
2022/12/15 15:36:33;;;;;;;14.93;3.95;;;2.90;99.90;;;;;;5109853;27;20087;-81
2022/12/15 15:39:00;;;;;;;10.52;3.72;;;2.80;99.90;;;;;;5109643;27;20039;-81
2022/12/15 15:41:28;;;;;;;10.68;3.17;;;2.80;99.90;;;;;;5109099;27;20050;-81